createdAt,value
2022-07-29T00:00:17.402Z,16.86
2022-07-29T00:05:25.417Z,16.8
2022-07-29T00:10:32.633Z,16.7
2022-07-29T00:15:40.558Z,16.64
2022-07-29T00:20:48.033Z,16.5
2022-07-29T00:25:54.863Z,16.32
2022-07-29T00:31:02.152Z,16.19
2022-07-29T00:36:08.658Z,15.96
2022-07-29T00:41:16.690Z,15.86
2022-07-29T00:46:24.843Z,15.85
2022-07-29T00:51:33.114Z,15.7
2022-07-29T00:56:40.677Z,15.49
2022-07-29T01:02:27.472Z,15.29
2022-07-29T01:07:40.419Z,15.14
2022-07-29T01:12:48.340Z,14.99
2022-07-29T01:17:55.613Z,14.93
2022-07-29T01:23:03.859Z,15.02
2022-07-29T01:28:11.832Z,15.0
2022-07-29T01:33:19.983Z,14.93
2022-07-29T01:38:27.764Z,14.83
2022-07-29T01:43:36.040Z,14.78
2022-07-29T01:48:44.118Z,14.72
2022-07-29T01:53:51.929Z,14.63
2022-07-29T01:59:00.089Z,14.72
2022-07-29T02:04:08.048Z,14.82
2022-07-29T02:09:15.779Z,15.04
2022-07-29T02:14:24.764Z,15.16
2022-07-29T02:19:33.256Z,15.12
2022-07-29T02:24:41.261Z,15.04
2022-07-29T02:29:48.867Z,14.84
2022-07-29T02:34:56.900Z,14.69
2022-07-29T02:40:04.100Z,14.5
2022-07-29T02:45:11.232Z,14.36
2022-07-29T02:50:19.072Z,14.22
2022-07-29T02:55:27.108Z,14.16
2022-07-29T03:00:35.324Z,14.26
2022-07-29T03:05:43.952Z,14.39
2022-07-29T03:10:50.762Z,14.57
2022-07-29T03:15:58.392Z,14.52
2022-07-29T03:21:05.905Z,14.52
2022-07-29T03:26:13.485Z,14.58
2022-07-29T03:31:21.422Z,14.6
2022-07-29T03:36:29.558Z,14.72
2022-07-29T03:41:37.717Z,14.72
2022-07-29T03:46:45.901Z,14.63
2022-07-29T03:51:54.312Z,14.63
2022-07-29T03:57:02.282Z,14.67
2022-07-29T04:02:11.082Z,14.74
2022-07-29T04:07:19.500Z,15.1
2022-07-29T04:12:28.150Z,15.76
2022-07-29T04:17:43.239Z,16.48
2022-07-29T04:22:51.174Z,18.02
2022-07-29T04:27:58.334Z,19.78
2022-07-29T04:33:06.172Z,20.7
2022-07-29T04:38:14.635Z,21.48
2022-07-29T04:43:23.069Z,21.34
2022-07-29T04:48:30.979Z,21.71
2022-07-29T04:53:39.239Z,22.42
2022-07-29T04:58:47.291Z,23.17
2022-07-29T05:03:54.506Z,23.02
2022-07-29T05:09:02.393Z,22.6
2022-07-29T05:14:09.580Z,21.62
2022-07-29T05:19:17.593Z,21.1
2022-07-29T05:24:27.004Z,20.92
2022-07-29T05:29:34.334Z,21.23
2022-07-29T05:34:42.497Z,22.1
2022-07-29T05:39:50.694Z,21.85
2022-07-29T05:44:58.548Z,21.47
2022-07-29T05:50:05.818Z,21.22
2022-07-29T05:55:12.956Z,21.26
2022-07-29T06:00:20.751Z,21.28
2022-07-29T06:05:29.029Z,21.1
2022-07-29T06:10:36.216Z,20.84
2022-07-29T06:15:44.827Z,20.88
2022-07-29T06:20:52.093Z,20.86
2022-07-29T06:38:52.330Z,19.89
2022-07-29T06:43:59.559Z,19.62
2022-07-29T06:49:06.817Z,19.4
2022-07-29T06:54:15.173Z,19.3
2022-07-29T06:59:22.714Z,19.21
2022-07-29T07:04:29.735Z,19.16
2022-07-29T07:09:38.686Z,19.15
2022-07-29T07:14:46.007Z,18.86
2022-07-29T07:19:53.628Z,18.76
2022-07-29T07:25:01.045Z,18.89
2022-07-29T07:30:09.131Z,19.02
2022-07-29T07:35:16.159Z,19.11
2022-07-29T07:40:24.970Z,19.1
2022-07-29T07:45:33.101Z,19.04
2022-07-29T07:50:40.893Z,19.03
2022-07-29T07:55:48.483Z,19.14
2022-07-29T08:00:55.931Z,19.4
2022-07-29T08:06:05.016Z,19.84
2022-07-29T08:11:12.237Z,20.54
2022-07-29T08:16:20.161Z,21.26
2022-07-29T08:21:28.341Z,22.1
2022-07-29T08:26:36.010Z,22.54
2022-07-29T08:31:44.357Z,22.46
2022-07-29T08:36:51.463Z,22.46
2022-07-29T08:42:00.242Z,22.42
2022-07-29T08:47:07.783Z,22.3
2022-07-29T08:52:15.607Z,22.65
2022-07-29T08:57:22.856Z,23.06
2022-07-29T09:02:30.053Z,23.24
2022-07-29T09:07:38.999Z,23.22
2022-07-29T09:12:46.448Z,23.36
2022-07-29T09:17:54.174Z,23.1
2022-07-29T09:23:02.002Z,22.78
2022-07-29T09:28:07.975Z,22.52
2022-07-29T09:33:15.863Z,22.17
2022-07-29T09:38:24.065Z,21.71
2022-07-29T09:43:32.090Z,21.36
2022-07-29T09:48:40.042Z,21.16
2022-07-29T09:53:48.822Z,21.35
2022-07-29T09:58:56.294Z,21.79
2022-07-29T10:04:09.714Z,22.31
2022-07-29T10:09:16.414Z,22.66
2022-07-29T10:14:24.250Z,23.14
2022-07-29T10:19:32.037Z,23.79
2022-07-29T10:24:39.356Z,24.47
2022-07-29T10:29:51.480Z,26.54
2022-07-29T10:34:58.769Z,27.88
2022-07-29T10:40:06.020Z,28.35
2022-07-29T10:45:14.673Z,28.69
2022-07-29T10:50:22.529Z,29.01
2022-07-29T10:55:30.706Z,28.84
2022-07-29T11:00:38.510Z,29.47
2022-07-29T11:05:46.359Z,29.31
2022-07-29T11:10:53.813Z,29.43
2022-07-29T11:16:01.960Z,30.19
2022-07-29T11:21:11.094Z,30.97
2022-07-29T11:26:17.897Z,29.65
2022-07-29T11:31:25.767Z,29.33
2022-07-29T11:36:33.477Z,29.7
2022-07-29T11:41:42.013Z,30.07
2022-07-29T11:46:49.780Z,30.26
2022-07-29T11:51:57.704Z,29.69
2022-07-29T11:57:05.939Z,29.22
2022-07-29T12:02:13.424Z,29.8
2022-07-29T12:07:20.628Z,30.76
2022-07-29T12:12:28.381Z,30.44
2022-07-29T12:17:36.528Z,29.3
2022-07-29T12:22:44.393Z,28.8
2022-07-29T12:27:52.082Z,28.19
2022-07-29T12:32:58.994Z,28.15
2022-07-29T12:44:45.589Z,28.78
2022-07-29T12:49:51.029Z,30.98
2022-07-29T12:54:59.360Z,31.85
2022-07-29T13:00:06.329Z,31.64
2022-07-29T13:05:13.949Z,30.78
2022-07-29T13:10:22.775Z,30.4
2022-07-29T13:15:29.535Z,28.9
2022-07-29T13:20:36.102Z,28.14
2022-07-29T13:25:43.297Z,27.62
2022-07-29T13:30:51.066Z,27.66
2022-07-29T13:35:58.518Z,27.83
2022-07-29T13:41:06.674Z,28.36
2022-07-29T13:46:15.112Z,29.79
2022-07-29T13:51:22.101Z,30.76
2022-07-29T13:56:30.451Z,31.78
2022-07-29T14:01:37.690Z,31.8
2022-07-29T14:06:45.945Z,31.4
2022-07-29T14:11:54.471Z,32.08
2022-07-29T14:17:02.886Z,31.6
2022-07-29T14:22:11.314Z,30.1
2022-07-29T14:27:17.968Z,29.38
2022-07-29T14:32:24.820Z,29.97
2022-07-29T14:37:31.825Z,30.03
2022-07-29T14:42:39.675Z,28.54
2022-07-29T14:47:47.712Z,27.46
2022-07-29T14:52:56.526Z,27.02
2022-07-29T14:58:03.855Z,26.71
2022-07-29T15:03:11.615Z,26.57
2022-07-29T15:08:19.988Z,27.25
2022-07-29T15:13:28.438Z,27.23
2022-07-29T15:18:35.996Z,28.04
2022-07-29T15:23:44.581Z,28.58
2022-07-29T15:28:52.096Z,29.33
2022-07-29T15:34:01.212Z,28.76
2022-07-29T15:39:08.455Z,28.16
2022-07-29T15:44:16.058Z,27.54
2022-07-29T15:49:22.853Z,27.22
2022-07-29T15:54:31.802Z,27.7
2022-07-29T15:59:39.133Z,28.46
2022-07-29T16:04:46.316Z,29.06
2022-07-29T16:09:54.727Z,29.42
2022-07-29T16:15:01.791Z,29.17
2022-07-29T16:20:09.781Z,28.8
2022-07-29T16:25:17.894Z,28.83
2022-07-29T16:30:25.095Z,28.34
2022-07-29T16:35:32.034Z,28.03
2022-07-29T16:42:10.837Z,27.84
2022-07-29T16:47:17.219Z,27.62
2022-07-29T16:52:23.713Z,27.47
2022-07-29T16:57:32.012Z,27.57
2022-07-29T17:02:38.971Z,27.61
2022-07-29T17:07:46.320Z,27.12
2022-07-29T17:12:53.377Z,26.16
2022-07-29T17:18:01.323Z,25.54
2022-07-29T17:23:08.561Z,25.12
2022-07-29T17:28:15.609Z,24.8
2022-07-29T17:33:23.744Z,24.54
2022-07-29T17:38:32.327Z,24.39
2022-07-29T17:43:40.677Z,24.32
2022-07-29T17:48:48.925Z,24.24
2022-07-29T17:53:56.852Z,24.07
2022-07-29T17:59:04.976Z,23.75
2022-07-29T18:04:12.471Z,23.46
2022-07-29T18:09:20.393Z,23.22
2022-07-29T18:14:29.126Z,23.02
2022-07-29T18:19:36.712Z,22.84
2022-07-29T18:24:44.834Z,22.61
2022-07-29T18:29:52.536Z,22.42
2022-07-29T18:34:59.552Z,22.26
2022-07-29T18:40:07.225Z,22.11
2022-07-29T18:45:16.286Z,21.94
2022-07-29T18:50:24.216Z,21.75
2022-07-29T18:55:32.605Z,21.62
2022-07-29T19:00:40.387Z,21.47
2022-07-29T19:05:49.018Z,21.38
2022-07-29T19:10:57.282Z,21.2
2022-07-29T19:16:04.979Z,20.86
2022-07-29T19:21:12.924Z,20.3
2022-07-29T19:26:21.249Z,19.94
2022-07-29T19:31:29.081Z,19.62
2022-07-29T19:36:36.091Z,19.38
2022-07-29T19:41:43.806Z,19.28
2022-07-29T19:46:51.822Z,19.03
2022-07-29T19:52:00.162Z,18.88
2022-07-29T19:57:07.151Z,18.81
2022-07-29T20:02:15.278Z,18.88
2022-07-29T20:07:22.695Z,18.65
2022-07-29T20:12:30.512Z,18.39
2022-07-29T20:17:38.325Z,18.21
2022-07-29T20:22:45.367Z,18.11
2022-07-29T20:27:53.212Z,18.04
2022-07-29T20:33:00.410Z,17.96
2022-07-29T20:38:08.261Z,17.88
2022-07-29T20:43:17.096Z,17.83
2022-07-29T20:48:24.766Z,17.83
2022-07-29T20:53:32.838Z,17.86
2022-07-29T20:58:40.227Z,17.78
2022-07-29T21:03:47.453Z,17.7
2022-07-29T21:08:55.290Z,17.58
2022-07-29T21:14:03.184Z,17.54
2022-07-29T21:19:10.344Z,17.56
2022-07-29T21:24:18.619Z,17.65
2022-07-29T21:29:25.367Z,17.62
2022-07-29T21:34:33.489Z,17.54
2022-07-29T21:39:41.936Z,17.53
2022-07-29T21:44:50.708Z,17.54
2022-07-29T21:49:58.583Z,17.51
2022-07-29T21:55:06.748Z,17.56
2022-07-29T22:00:16.130Z,17.49
2022-07-29T22:05:23.510Z,17.48
2022-07-29T22:10:31.319Z,17.44
2022-07-29T22:15:39.141Z,17.49
2022-07-29T22:20:47.252Z,17.67
2022-07-29T22:25:54.709Z,18.07
2022-07-29T22:31:02.206Z,18.46
2022-07-29T22:36:09.322Z,18.75
2022-07-29T22:41:16.420Z,19.02
2022-07-29T22:46:22.908Z,19.28
2022-07-29T22:51:30.165Z,19.4
2022-07-29T22:56:38.920Z,19.48
2022-07-29T23:01:47.484Z,19.48
2022-07-29T23:07:00.743Z,19.47
2022-07-29T23:12:07.936Z,19.69
2022-07-29T23:17:16.218Z,19.99
2022-07-29T23:22:24.251Z,20.22
2022-07-29T23:27:31.475Z,20.6
2022-07-29T23:32:39.770Z,20.88
2022-07-29T23:37:47.516Z,21.01
2022-07-29T23:42:55.594Z,21.06
2022-07-29T23:48:02.775Z,20.49
2022-07-29T23:53:09.338Z,19.48
2022-07-29T23:58:17.177Z,18.79
